sensor_id;sensor_type;location;lat;lon;timestamp;temperature;humidity
9497;DHT22;4786;51.270;4.456;2022-10-16T00:02:06;14.30;99.90
9497;DHT22;4786;51.270;4.456;2022-10-16T00:04:32;14.40;99.90
9497;DHT22;4786;51.270;4.456;2022-10-16T00:06:58;14.40;99.90
9497;DHT22;4786;51.270;4.456;2022-10-16T00:09:24;14.40;99.90
9497;DHT22;4786;51.270;4.456;2022-10-16T00:11:50;14.30;99.90
9497;DHT22;4786;51.270;4.456;2022-10-16T00:14:16;14.40;99.90
9497;DHT22;4786;51.270;4.456;2022-10-16T00:16:42;14.40;99.90
9497;DHT22;4786;51.270;4.456;2022-10-16T00:19:10;14.40;99.90
9497;DHT22;4786;51.270;4.456;2022-10-16T00:21:36;14.40;99.90
9497;DHT22;4786;51.270;4.456;2022-10-16T00:24:06;14.30;99.90
9497;DHT22;4786;51.270;4.456;2022-10-16T00:26:33;14.30;99.90
9497;DHT22;4786;51.270;4.456;2022-10-16T00:29:00;14.40;99.90
9497;DHT22;4786;51.270;4.456;2022-10-16T00:31:26;14.40;99.90
9497;DHT22;4786;51.270;4.456;2022-10-16T00:33:53;14.40;99.90
9497;DHT22;4786;51.270;4.456;2022-10-16T00:36:21;14.40;99.90
9497;DHT22;4786;51.270;4.456;2022-10-16T00:38:50;14.40;99.90
9497;DHT22;4786;51.270;4.456;2022-10-16T00:41:18;14.30;99.90
9497;DHT22;4786;51.270;4.456;2022-10-16T00:43:49;14.30;99.90
9497;DHT22;4786;51.270;4.456;2022-10-16T00:46:19;14.30;99.90
9497;DHT22;4786;51.270;4.456;2022-10-16T00:51:32;14.30;99.90
9497;DHT22;4786;51.270;4.456;2022-10-16T00:53:59;14.30;99.90
9497;DHT22;4786;51.270;4.456;2022-10-16T00:56:25;14.30;99.90
9497;DHT22;4786;51.270;4.456;2022-10-16T00:58:52;14.30;99.90
9497;DHT22;4786;51.270;4.456;2022-10-16T01:01:17;14.30;99.90
9497;DHT22;4786;51.270;4.456;2022-10-16T01:03:43;14.20;99.90
9497;DHT22;4786;51.270;4.456;2022-10-16T01:11:57;14.30;99.90
9497;DHT22;4786;51.270;4.456;2022-10-16T01:14:36;14.30;99.90
9497;DHT22;4786;51.270;4.456;2022-10-16T01:17:12;14.30;99.90
9497;DHT22;4786;51.270;4.456;2022-10-16T01:31:34;14.20;99.90
9497;DHT22;4786;51.270;4.456;2022-10-16T01:34:29;14.10;99.90
9497;DHT22;4786;51.270;4.456;2022-10-16T01:37:02;14.20;99.90
9497;DHT22;4786;51.270;4.456;2022-10-16T01:39:33;14.10;99.90
9497;DHT22;4786;51.270;4.456;2022-10-16T01:42:15;14.10;99.90
9497;DHT22;4786;51.270;4.456;2022-10-16T01:44:43;14.10;99.90
9497;DHT22;4786;51.270;4.456;2022-10-16T01:47:12;14.10;99.90
9497;DHT22;4786;51.270;4.456;2022-10-16T01:49:39;14.10;99.90
9497;DHT22;4786;51.270;4.456;2022-10-16T01:52:10;14.20;99.90
9497;DHT22;4786;51.270;4.456;2022-10-16T01:54:42;14.10;99.90
9497;DHT22;4786;51.270;4.456;2022-10-16T01:57:10;14.10;99.90
9497;DHT22;4786;51.270;4.456;2022-10-16T01:59:43;14.10;99.90
9497;DHT22;4786;51.270;4.456;2022-10-16T02:02:10;14.00;99.90
9497;DHT22;4786;51.270;4.456;2022-10-16T02:04:42;13.90;99.90
9497;DHT22;4786;51.270;4.456;2022-10-16T02:07:08;13.90;99.90
9497;DHT22;4786;51.270;4.456;2022-10-16T02:09:34;14.00;99.90
9497;DHT22;4786;51.270;4.456;2022-10-16T02:12:06;14.00;99.90
9497;DHT22;4786;51.270;4.456;2022-10-16T02:14:33;14.00;99.90
9497;DHT22;4786;51.270;4.456;2022-10-16T02:16:59;14.00;99.90
9497;DHT22;4786;51.270;4.456;2022-10-16T02:19:25;14.00;99.90
9497;DHT22;4786;51.270;4.456;2022-10-16T02:29:40;13.90;99.90
9497;DHT22;4786;51.270;4.456;2022-10-16T02:32:12;13.90;99.90
9497;DHT22;4786;51.270;4.456;2022-10-16T02:34:40;13.90;99.90
9497;DHT22;4786;51.270;4.456;2022-10-16T02:37:06;13.90;99.90
9497;DHT22;4786;51.270;4.456;2022-10-16T02:39:33;13.80;99.90
9497;DHT22;4786;51.270;4.456;2022-10-16T02:42:00;13.80;99.90
9497;DHT22;4786;51.270;4.456;2022-10-16T02:44:25;13.70;99.90
9497;DHT22;4786;51.270;4.456;2022-10-16T02:46:51;13.70;99.90
9497;DHT22;4786;51.270;4.456;2022-10-16T02:49:17;13.70;99.90
9497;DHT22;4786;51.270;4.456;2022-10-16T02:51:44;13.70;99.90
9497;DHT22;4786;51.270;4.456;2022-10-16T02:54:10;13.80;99.90
9497;DHT22;4786;51.270;4.456;2022-10-16T02:56:36;13.80;99.90
9497;DHT22;4786;51.270;4.456;2022-10-16T02:59:02;13.80;99.90
9497;DHT22;4786;51.270;4.456;2022-10-16T03:01:28;13.80;99.90
9497;DHT22;4786;51.270;4.456;2022-10-16T03:03:54;13.80;99.90
9497;DHT22;4786;51.270;4.456;2022-10-16T03:06:20;13.80;99.90
9497;DHT22;4786;51.270;4.456;2022-10-16T03:08:46;13.80;99.90
9497;DHT22;4786;51.270;4.456;2022-10-16T03:11:12;13.80;99.90
9497;DHT22;4786;51.270;4.456;2022-10-16T03:13:38;13.80;99.90
9497;DHT22;4786;51.270;4.456;2022-10-16T03:16:04;13.80;99.90
9497;DHT22;4786;51.270;4.456;2022-10-16T03:18:29;13.80;99.90
9497;DHT22;4786;51.270;4.456;2022-10-16T03:20:56;13.80;99.90
9497;DHT22;4786;51.270;4.456;2022-10-16T03:23:21;13.80;99.90
9497;DHT22;4786;51.270;4.456;2022-10-16T03:25:47;13.80;99.90
9497;DHT22;4786;51.270;4.456;2022-10-16T03:28:13;14.00;99.90
9497;DHT22;4786;51.270;4.456;2022-10-16T03:30:39;14.00;99.90
9497;DHT22;4786;51.270;4.456;2022-10-16T03:33:05;13.80;99.90
9497;DHT22;4786;51.270;4.456;2022-10-16T03:35:32;13.80;99.90
9497;DHT22;4786;51.270;4.456;2022-10-16T03:37:58;13.80;99.90
9497;DHT22;4786;51.270;4.456;2022-10-16T03:40:24;13.80;99.90
9497;DHT22;4786;51.270;4.456;2022-10-16T03:42:50;13.80;99.90
9497;DHT22;4786;51.270;4.456;2022-10-16T03:45:17;13.80;99.90
9497;DHT22;4786;51.270;4.456;2022-10-16T03:47:43;13.80;99.90
9497;DHT22;4786;51.270;4.456;2022-10-16T03:50:09;13.80;99.90
9497;DHT22;4786;51.270;4.456;2022-10-16T03:52:35;13.90;99.90
9497;DHT22;4786;51.270;4.456;2022-10-16T03:55:01;13.80;99.90
9497;DHT22;4786;51.270;4.456;2022-10-16T03:57:27;13.90;99.90
9497;DHT22;4786;51.270;4.456;2022-10-16T03:59:52;13.90;99.90
9497;DHT22;4786;51.270;4.456;2022-10-16T04:02:18;13.80;99.90
9497;DHT22;4786;51.270;4.456;2022-10-16T04:04:43;13.80;99.90
9497;DHT22;4786;51.270;4.456;2022-10-16T04:07:09;13.80;99.90
9497;DHT22;4786;51.270;4.456;2022-10-16T04:09:36;13.80;99.90
9497;DHT22;4786;51.270;4.456;2022-10-16T04:12:01;13.70;99.90
9497;DHT22;4786;51.270;4.456;2022-10-16T04:14:27;13.90;99.90
9497;DHT22;4786;51.270;4.456;2022-10-16T04:16:53;13.80;99.90
9497;DHT22;4786;51.270;4.456;2022-10-16T04:19:19;13.80;99.90
9497;DHT22;4786;51.270;4.456;2022-10-16T04:21:45;13.70;99.90
9497;DHT22;4786;51.270;4.456;2022-10-16T04:24:11;13.70;99.90
9497;DHT22;4786;51.270;4.456;2022-10-16T04:26:37;13.70;99.90
9497;DHT22;4786;51.270;4.456;2022-10-16T04:29:03;13.80;99.90
9497;DHT22;4786;51.270;4.456;2022-10-16T04:31:29;13.80;99.90
9497;DHT22;4786;51.270;4.456;2022-10-16T04:33:55;13.80;99.90
9497;DHT22;4786;51.270;4.456;2022-10-16T04:36:21;13.80;99.90
9497;DHT22;4786;51.270;4.456;2022-10-16T04:38:46;13.70;99.90
9497;DHT22;4786;51.270;4.456;2022-10-16T04:41:12;13.70;99.90
9497;DHT22;4786;51.270;4.456;2022-10-16T04:43:38;13.70;99.90
9497;DHT22;4786;51.270;4.456;2022-10-16T04:46:04;13.80;99.90
9497;DHT22;4786;51.270;4.456;2022-10-16T04:48:31;13.70;99.90
9497;DHT22;4786;51.270;4.456;2022-10-16T04:50:56;13.70;99.90
9497;DHT22;4786;51.270;4.456;2022-10-16T04:53:22;13.70;99.90
9497;DHT22;4786;51.270;4.456;2022-10-16T04:55:49;13.70;99.90
9497;DHT22;4786;51.270;4.456;2022-10-16T04:58:15;13.60;99.90
9497;DHT22;4786;51.270;4.456;2022-10-16T05:00:41;13.70;99.90
9497;DHT22;4786;51.270;4.456;2022-10-16T05:03:07;13.60;99.90
9497;DHT22;4786;51.270;4.456;2022-10-16T05:05:35;13.60;99.90
9497;DHT22;4786;51.270;4.456;2022-10-16T05:08:01;13.60;99.90
9497;DHT22;4786;51.270;4.456;2022-10-16T05:10:28;13.60;99.90
9497;DHT22;4786;51.270;4.456;2022-10-16T05:12:54;13.60;99.90
9497;DHT22;4786;51.270;4.456;2022-10-16T05:15:20;13.60;99.90
9497;DHT22;4786;51.270;4.456;2022-10-16T05:17:46;13.70;99.90
9497;DHT22;4786;51.270;4.456;2022-10-16T05:20:12;13.60;99.90
9497;DHT22;4786;51.270;4.456;2022-10-16T05:22:38;13.70;99.90
9497;DHT22;4786;51.270;4.456;2022-10-16T05:25:04;13.60;99.90
9497;DHT22;4786;51.270;4.456;2022-10-16T05:27:30;13.60;99.90
9497;DHT22;4786;51.270;4.456;2022-10-16T05:29:55;13.60;99.90
9497;DHT22;4786;51.270;4.456;2022-10-16T05:32:21;13.60;99.90
9497;DHT22;4786;51.270;4.456;2022-10-16T05:34:47;13.50;99.90
9497;DHT22;4786;51.270;4.456;2022-10-16T05:37:13;13.50;99.90
9497;DHT22;4786;51.270;4.456;2022-10-16T05:39:39;13.50;99.90
9497;DHT22;4786;51.270;4.456;2022-10-16T05:42:05;13.50;99.90
9497;DHT22;4786;51.270;4.456;2022-10-16T05:44:32;13.50;99.90
9497;DHT22;4786;51.270;4.456;2022-10-16T05:46:57;13.50;99.90
9497;DHT22;4786;51.270;4.456;2022-10-16T05:49:23;13.50;99.90
9497;DHT22;4786;51.270;4.456;2022-10-16T05:51:49;13.60;99.90
9497;DHT22;4786;51.270;4.456;2022-10-16T05:54:14;13.40;99.90
9497;DHT22;4786;51.270;4.456;2022-10-16T05:56:41;13.50;99.90
9497;DHT22;4786;51.270;4.456;2022-10-16T05:59:06;13.50;99.90
9497;DHT22;4786;51.270;4.456;2022-10-16T06:01:32;13.50;99.90
9497;DHT22;4786;51.270;4.456;2022-10-16T06:03:59;13.60;99.90
9497;DHT22;4786;51.270;4.456;2022-10-16T06:06:27;13.60;99.90
9497;DHT22;4786;51.270;4.456;2022-10-16T06:08:54;13.60;99.90
9497;DHT22;4786;51.270;4.456;2022-10-16T06:11:31;13.60;99.90
9497;DHT22;4786;51.270;4.456;2022-10-16T06:14:00;13.70;99.90
9497;DHT22;4786;51.270;4.456;2022-10-16T06:16:28;13.60;99.90
9497;DHT22;4786;51.270;4.456;2022-10-16T06:18:55;13.60;99.90
9497;DHT22;4786;51.270;4.456;2022-10-16T06:21:25;13.70;99.90
9497;DHT22;4786;51.270;4.456;2022-10-16T06:23:52;13.70;99.90
9497;DHT22;4786;51.270;4.456;2022-10-16T06:26:21;13.70;99.90
9497;DHT22;4786;51.270;4.456;2022-10-16T06:28:48;13.70;99.90
9497;DHT22;4786;51.270;4.456;2022-10-16T06:31:14;13.60;99.90
9497;DHT22;4786;51.270;4.456;2022-10-16T06:33:41;13.80;99.90
9497;DHT22;4786;51.270;4.456;2022-10-16T06:36:12;13.80;99.90
9497;DHT22;4786;51.270;4.456;2022-10-16T06:38:38;13.80;99.90
9497;DHT22;4786;51.270;4.456;2022-10-16T06:41:05;13.90;99.90
9497;DHT22;4786;51.270;4.456;2022-10-16T06:43:32;13.80;99.90
9497;DHT22;4786;51.270;4.456;2022-10-16T06:45:59;13.70;99.90
9497;DHT22;4786;51.270;4.456;2022-10-16T06:48:26;13.80;99.90
9497;DHT22;4786;51.270;4.456;2022-10-16T06:51:00;13.80;99.90
9497;DHT22;4786;51.270;4.456;2022-10-16T06:53:30;13.80;99.90
9497;DHT22;4786;51.270;4.456;2022-10-16T06:55:56;13.80;99.90
9497;DHT22;4786;51.270;4.456;2022-10-16T06:58:22;13.90;99.90
9497;DHT22;4786;51.270;4.456;2022-10-16T07:00:51;13.80;99.90
9497;DHT22;4786;51.270;4.456;2022-10-16T07:03:20;13.80;99.90
9497;DHT22;4786;51.270;4.456;2022-10-16T07:05:46;13.90;99.90
9497;DHT22;4786;51.270;4.456;2022-10-16T07:08:11;13.90;99.90
9497;DHT22;4786;51.270;4.456;2022-10-16T07:10:37;14.00;99.90
9497;DHT22;4786;51.270;4.456;2022-10-16T07:13:03;13.90;99.90
9497;DHT22;4786;51.270;4.456;2022-10-16T07:15:28;14.10;99.90
9497;DHT22;4786;51.270;4.456;2022-10-16T07:17:54;14.10;99.90
9497;DHT22;4786;51.270;4.456;2022-10-16T07:20:21;14.10;99.90
9497;DHT22;4786;51.270;4.456;2022-10-16T07:22:46;14.20;99.90
9497;DHT22;4786;51.270;4.456;2022-10-16T07:25:12;14.30;99.90
9497;DHT22;4786;51.270;4.456;2022-10-16T07:27:38;14.20;99.90
9497;DHT22;4786;51.270;4.456;2022-10-16T07:30:04;14.30;99.90
9497;DHT22;4786;51.270;4.456;2022-10-16T07:32:31;14.30;99.90
9497;DHT22;4786;51.270;4.456;2022-10-16T07:34:57;14.40;99.90
9497;DHT22;4786;51.270;4.456;2022-10-16T07:37:23;14.40;99.90
9497;DHT22;4786;51.270;4.456;2022-10-16T07:39:49;14.40;99.90
9497;DHT22;4786;51.270;4.456;2022-10-16T07:42:15;14.40;99.90
9497;DHT22;4786;51.270;4.456;2022-10-16T07:44:41;14.40;99.90
9497;DHT22;4786;51.270;4.456;2022-10-16T07:47:07;14.30;99.90
9497;DHT22;4786;51.270;4.456;2022-10-16T07:49:33;14.40;99.90
9497;DHT22;4786;51.270;4.456;2022-10-16T07:51:59;14.40;99.90
9497;DHT22;4786;51.270;4.456;2022-10-16T07:54:24;14.50;99.90
9497;DHT22;4786;51.270;4.456;2022-10-16T07:56:50;14.50;99.90
9497;DHT22;4786;51.270;4.456;2022-10-16T07:59:16;14.60;99.90
9497;DHT22;4786;51.270;4.456;2022-10-16T08:01:42;14.70;99.90
9497;DHT22;4786;51.270;4.456;2022-10-16T08:04:09;14.90;99.90
9497;DHT22;4786;51.270;4.456;2022-10-16T08:06:37;15.10;99.90
9497;DHT22;4786;51.270;4.456;2022-10-16T08:09:03;15.30;99.90
9497;DHT22;4786;51.270;4.456;2022-10-16T08:11:29;15.50;99.90
9497;DHT22;4786;51.270;4.456;2022-10-16T08:13:56;15.80;99.90
9497;DHT22;4786;51.270;4.456;2022-10-16T08:16:21;16.00;99.90
9497;DHT22;4786;51.270;4.456;2022-10-16T08:18:48;16.00;99.90
9497;DHT22;4786;51.270;4.456;2022-10-16T08:21:17;16.30;99.90
9497;DHT22;4786;51.270;4.456;2022-10-16T08:23:43;16.80;99.90
9497;DHT22;4786;51.270;4.456;2022-10-16T08:26:10;17.60;99.90
9497;DHT22;4786;51.270;4.456;2022-10-16T08:28:37;18.40;99.90
9497;DHT22;4786;51.270;4.456;2022-10-16T08:33:36;19.60;99.90
9497;DHT22;4786;51.270;4.456;2022-10-16T08:36:04;19.90;99.90
9497;DHT22;4786;51.270;4.456;2022-10-16T08:38:30;19.80;99.90
9497;DHT22;4786;51.270;4.456;2022-10-16T08:41:20;19.50;99.90
9497;DHT22;4786;51.270;4.456;2022-10-16T08:44:01;18.90;99.90
9497;DHT22;4786;51.270;4.456;2022-10-16T08:49:03;18.30;99.90
9497;DHT22;4786;51.270;4.456;2022-10-16T08:51:31;18.30;99.90
9497;DHT22;4786;51.270;4.456;2022-10-16T08:54:01;18.20;99.90
9497;DHT22;4786;51.270;4.456;2022-10-16T08:56:27;18.20;99.90
9497;DHT22;4786;51.270;4.456;2022-10-16T08:58:54;18.10;99.90
9497;DHT22;4786;51.270;4.456;2022-10-16T09:01:22;18.10;99.90
9497;DHT22;4786;51.270;4.456;2022-10-16T09:04:02;18.10;99.90
9497;DHT22;4786;51.270;4.456;2022-10-16T09:12:39;18.30;99.90
9497;DHT22;4786;51.270;4.456;2022-10-16T09:15:46;18.30;99.90
9497;DHT22;4786;51.270;4.456;2022-10-16T09:21:23;18.50;99.90
9497;DHT22;4786;51.270;4.456;2022-10-16T09:23:51;18.50;99.90
9497;DHT22;4786;51.270;4.456;2022-10-16T09:26:18;18.60;99.90
9497;DHT22;4786;51.270;4.456;2022-10-16T09:28:45;18.60;99.90
9497;DHT22;4786;51.270;4.456;2022-10-16T09:31:18;18.70;99.90
9497;DHT22;4786;51.270;4.456;2022-10-16T09:33:52;18.70;99.90
9497;DHT22;4786;51.270;4.456;2022-10-16T09:36:20;18.70;99.90
9497;DHT22;4786;51.270;4.456;2022-10-16T09:38:47;18.70;99.90
9497;DHT22;4786;51.270;4.456;2022-10-16T09:41:19;18.80;99.90
9497;DHT22;4786;51.270;4.456;2022-10-16T09:49:03;18.90;99.90
9497;DHT22;4786;51.270;4.456;2022-10-16T09:51:31;18.90;99.90
9497;DHT22;4786;51.270;4.456;2022-10-16T09:54:13;19.00;99.90
9497;DHT22;4786;51.270;4.456;2022-10-16T09:56:40;19.00;99.90
9497;DHT22;4786;51.270;4.456;2022-10-16T09:59:12;19.10;99.90
9497;DHT22;4786;51.270;4.456;2022-10-16T10:01:44;19.10;99.90
9497;DHT22;4786;51.270;4.456;2022-10-16T10:04:10;19.20;99.90
9497;DHT22;4786;51.270;4.456;2022-10-16T10:06:40;19.10;99.90
9497;DHT22;4786;51.270;4.456;2022-10-16T10:11:56;19.30;99.90
9497;DHT22;4786;51.270;4.456;2022-10-16T10:16:52;19.50;99.90
9497;DHT22;4786;51.270;4.456;2022-10-16T10:19:27;19.60;99.90
9497;DHT22;4786;51.270;4.456;2022-10-16T10:21:53;19.70;99.90
9497;DHT22;4786;51.270;4.456;2022-10-16T10:24:19;19.80;99.90
9497;DHT22;4786;51.270;4.456;2022-10-16T10:26:51;19.80;99.90
9497;DHT22;4786;51.270;4.456;2022-10-16T10:42:48;19.80;99.90
9497;DHT22;4786;51.270;4.456;2022-10-16T10:48:40;20.10;99.90
9497;DHT22;4786;51.270;4.456;2022-10-16T10:51:15;20.30;99.90
9497;DHT22;4786;51.270;4.456;2022-10-16T10:54:11;20.50;99.90
9497;DHT22;4786;51.270;4.456;2022-10-16T10:57:00;20.70;99.90
9497;DHT22;4786;51.270;4.456;2022-10-16T10:59:30;20.70;99.90
9497;DHT22;4786;51.270;4.456;2022-10-16T11:05:16;20.80;99.90
9497;DHT22;4786;51.270;4.456;2022-10-16T11:10:27;20.90;99.90
9497;DHT22;4786;51.270;4.456;2022-10-16T11:13:19;20.80;99.90
9497;DHT22;4786;51.270;4.456;2022-10-16T11:15:48;20.90;99.90
9497;DHT22;4786;51.270;4.456;2022-10-16T11:18:22;20.90;99.90
9497;DHT22;4786;51.270;4.456;2022-10-16T11:21:02;20.80;99.90
9497;DHT22;4786;51.270;4.456;2022-10-16T11:23:35;20.40;99.90
9497;DHT22;4786;51.270;4.456;2022-10-16T11:26:11;20.40;99.90
9497;DHT22;4786;51.270;4.456;2022-10-16T11:28:45;20.50;99.90
9497;DHT22;4786;51.270;4.456;2022-10-16T11:31:20;20.50;99.90
9497;DHT22;4786;51.270;4.456;2022-10-16T11:34:21;20.50;99.90
9497;DHT22;4786;51.270;4.456;2022-10-16T11:37:10;20.50;99.90
9497;DHT22;4786;51.270;4.456;2022-10-16T11:39:38;20.40;99.90
9497;DHT22;4786;51.270;4.456;2022-10-16T11:42:11;20.30;99.90
9497;DHT22;4786;51.270;4.456;2022-10-16T11:47:23;20.30;99.90
9497;DHT22;4786;51.270;4.456;2022-10-16T11:49:58;20.20;99.90
9497;DHT22;4786;51.270;4.456;2022-10-16T11:55:01;20.20;99.90
9497;DHT22;4786;51.270;4.456;2022-10-16T11:57:33;20.20;99.90
9497;DHT22;4786;51.270;4.456;2022-10-16T12:00:28;20.20;99.90
9497;DHT22;4786;51.270;4.456;2022-10-16T12:08:16;20.10;99.90
9497;DHT22;4786;51.270;4.456;2022-10-16T12:10:45;20.00;99.90
9497;DHT22;4786;51.270;4.456;2022-10-16T12:13:47;19.90;99.90
9497;DHT22;4786;51.270;4.456;2022-10-16T12:18:45;19.90;99.90
9497;DHT22;4786;51.270;4.456;2022-10-16T12:21:12;19.90;99.90
9497;DHT22;4786;51.270;4.456;2022-10-16T12:23:58;19.90;99.90
9497;DHT22;4786;51.270;4.456;2022-10-16T12:26:38;19.90;99.90
9497;DHT22;4786;51.270;4.456;2022-10-16T12:29:37;19.80;99.90
9497;DHT22;4786;51.270;4.456;2022-10-16T12:32:19;19.80;99.90
9497;DHT22;4786;51.270;4.456;2022-10-16T12:34:48;19.70;99.90
9497;DHT22;4786;51.270;4.456;2022-10-16T12:37:22;19.60;99.90
9497;DHT22;4786;51.270;4.456;2022-10-16T12:39:50;19.60;99.90
9497;DHT22;4786;51.270;4.456;2022-10-16T12:44:52;19.50;99.90
9497;DHT22;4786;51.270;4.456;2022-10-16T12:49:54;19.60;99.90
9497;DHT22;4786;51.270;4.456;2022-10-16T12:52:34;19.60;99.90
9497;DHT22;4786;51.270;4.456;2022-10-16T12:55:01;19.70;99.90
9497;DHT22;4786;51.270;4.456;2022-10-16T13:14:58;19.80;99.90
9497;DHT22;4786;51.270;4.456;2022-10-16T13:17:19;19.70;99.90
9497;DHT22;4786;51.270;4.456;2022-10-16T13:25:34;19.40;99.90
9497;DHT22;4786;51.270;4.456;2022-10-16T13:28:10;19.40;99.90
9497;DHT22;4786;51.270;4.456;2022-10-16T13:30:38;19.30;99.90
9497;DHT22;4786;51.270;4.456;2022-10-16T13:33:13;19.40;99.90
9497;DHT22;4786;51.270;4.456;2022-10-16T13:35:49;19.40;99.90
9497;DHT22;4786;51.270;4.456;2022-10-16T13:40:54;19.50;99.90
9497;DHT22;4786;51.270;4.456;2022-10-16T13:43:36;19.50;99.90
9497;DHT22;4786;51.270;4.456;2022-10-16T13:46:40;19.50;99.90
9497;DHT22;4786;51.270;4.456;2022-10-16T13:49:05;19.40;99.90
9497;DHT22;4786;51.270;4.456;2022-10-16T13:51:32;19.40;99.90
9497;DHT22;4786;51.270;4.456;2022-10-16T13:53:58;19.40;99.90
9497;DHT22;4786;51.270;4.456;2022-10-16T13:56:32;19.40;99.90
9497;DHT22;4786;51.270;4.456;2022-10-16T13:59:27;19.40;99.90
9497;DHT22;4786;51.270;4.456;2022-10-16T14:01:58;19.40;99.90
9497;DHT22;4786;51.270;4.456;2022-10-16T14:04:32;19.40;99.90
9497;DHT22;4786;51.270;4.456;2022-10-16T14:06:58;19.40;99.90
9497;DHT22;4786;51.270;4.456;2022-10-16T14:09:29;19.40;99.90
9497;DHT22;4786;51.270;4.456;2022-10-16T14:11:59;19.50;99.90
9497;DHT22;4786;51.270;4.456;2022-10-16T14:14:29;19.50;99.90
9497;DHT22;4786;51.270;4.456;2022-10-16T14:16:59;19.50;99.90
9497;DHT22;4786;51.270;4.456;2022-10-16T14:19:29;19.50;99.90
9497;DHT22;4786;51.270;4.456;2022-10-16T14:21:56;19.50;99.90
9497;DHT22;4786;51.270;4.456;2022-10-16T14:24:33;19.50;99.90
9497;DHT22;4786;51.270;4.456;2022-10-16T14:27:00;19.50;99.90
9497;DHT22;4786;51.270;4.456;2022-10-16T14:29:28;19.50;99.90
9497;DHT22;4786;51.270;4.456;2022-10-16T14:34:28;19.50;99.90
9497;DHT22;4786;51.270;4.456;2022-10-16T14:36:56;19.50;99.90
9497;DHT22;4786;51.270;4.456;2022-10-16T14:39:24;19.50;99.90
9497;DHT22;4786;51.270;4.456;2022-10-16T14:41:52;19.50;99.90
9497;DHT22;4786;51.270;4.456;2022-10-16T14:44:18;19.50;99.90
9497;DHT22;4786;51.270;4.456;2022-10-16T14:46:45;19.50;99.90
9497;DHT22;4786;51.270;4.456;2022-10-16T14:51:38;19.40;99.90
9497;DHT22;4786;51.270;4.456;2022-10-16T14:54:11;19.40;99.90
9497;DHT22;4786;51.270;4.456;2022-10-16T14:59:19;19.20;99.90
9497;DHT22;4786;51.270;4.456;2022-10-16T15:01:46;19.20;99.90
9497;DHT22;4786;51.270;4.456;2022-10-16T15:04:12;19.20;99.90
9497;DHT22;4786;51.270;4.456;2022-10-16T15:06:38;19.10;99.90
9497;DHT22;4786;51.270;4.456;2022-10-16T15:09:05;19.10;99.90
9497;DHT22;4786;51.270;4.456;2022-10-16T15:11:32;19.10;99.90
9497;DHT22;4786;51.270;4.456;2022-10-16T15:13:58;19.00;99.90
9497;DHT22;4786;51.270;4.456;2022-10-16T15:16:24;19.00;99.90
9497;DHT22;4786;51.270;4.456;2022-10-16T15:18:50;19.00;99.90
9497;DHT22;4786;51.270;4.456;2022-10-16T15:23:51;18.90;99.90
9497;DHT22;4786;51.270;4.456;2022-10-16T15:26:17;18.90;99.90
9497;DHT22;4786;51.270;4.456;2022-10-16T15:28:44;18.80;99.90
9497;DHT22;4786;51.270;4.456;2022-10-16T15:31:10;18.80;99.90
9497;DHT22;4786;51.270;4.456;2022-10-16T15:33:35;18.80;99.90
9497;DHT22;4786;51.270;4.456;2022-10-16T15:36:02;18.70;99.90
9497;DHT22;4786;51.270;4.456;2022-10-16T15:38:29;18.70;99.90
9497;DHT22;4786;51.270;4.456;2022-10-16T15:40:55;18.60;99.90
9497;DHT22;4786;51.270;4.456;2022-10-16T15:43:22;18.60;99.90
9497;DHT22;4786;51.270;4.456;2022-10-16T15:46:03;18.60;99.90
9497;DHT22;4786;51.270;4.456;2022-10-16T15:48:31;18.50;99.90
9497;DHT22;4786;51.270;4.456;2022-10-16T15:50:57;18.50;99.90
9497;DHT22;4786;51.270;4.456;2022-10-16T15:53:24;18.50;99.90
9497;DHT22;4786;51.270;4.456;2022-10-16T15:55:49;18.50;99.90
9497;DHT22;4786;51.270;4.456;2022-10-16T15:58:16;18.40;99.90
9497;DHT22;4786;51.270;4.456;2022-10-16T16:00:42;18.40;99.90
9497;DHT22;4786;51.270;4.456;2022-10-16T16:03:08;18.30;99.90
9497;DHT22;4786;51.270;4.456;2022-10-16T16:05:37;18.20;99.90
9497;DHT22;4786;51.270;4.456;2022-10-16T16:08:03;18.20;99.90
9497;DHT22;4786;51.270;4.456;2022-10-16T16:10:29;18.20;99.90
9497;DHT22;4786;51.270;4.456;2022-10-16T16:12:55;18.10;99.90
9497;DHT22;4786;51.270;4.456;2022-10-16T16:15:22;18.10;99.90
9497;DHT22;4786;51.270;4.456;2022-10-16T16:17:48;18.00;99.90
9497;DHT22;4786;51.270;4.456;2022-10-16T16:20:14;18.00;99.90
9497;DHT22;4786;51.270;4.456;2022-10-16T16:22:40;17.90;99.90
9497;DHT22;4786;51.270;4.456;2022-10-16T16:25:07;17.90;99.90
9497;DHT22;4786;51.270;4.456;2022-10-16T16:27:33;17.90;99.90
9497;DHT22;4786;51.270;4.456;2022-10-16T16:30:00;17.80;99.90
9497;DHT22;4786;51.270;4.456;2022-10-16T16:32:26;17.80;99.90
9497;DHT22;4786;51.270;4.456;2022-10-16T16:34:52;17.70;99.90
9497;DHT22;4786;51.270;4.456;2022-10-16T16:37:18;17.70;99.90
9497;DHT22;4786;51.270;4.456;2022-10-16T16:39:44;17.70;99.90
9497;DHT22;4786;51.270;4.456;2022-10-16T16:42:13;17.60;99.90
9497;DHT22;4786;51.270;4.456;2022-10-16T16:44:38;17.60;99.90
9497;DHT22;4786;51.270;4.456;2022-10-16T16:47:05;17.60;99.90
9497;DHT22;4786;51.270;4.456;2022-10-16T16:49:31;17.50;99.90
9497;DHT22;4786;51.270;4.456;2022-10-16T16:51:57;17.50;99.90
9497;DHT22;4786;51.270;4.456;2022-10-16T16:54:23;17.30;99.90
9497;DHT22;4786;51.270;4.456;2022-10-16T16:56:49;17.40;99.90
9497;DHT22;4786;51.270;4.456;2022-10-16T16:59:17;17.30;99.90
9497;DHT22;4786;51.270;4.456;2022-10-16T17:01:45;17.30;99.90
9497;DHT22;4786;51.270;4.456;2022-10-16T17:04:12;17.20;99.90
9497;DHT22;4786;51.270;4.456;2022-10-16T17:06:38;17.20;99.90
9497;DHT22;4786;51.270;4.456;2022-10-16T17:09:05;17.20;99.90
9497;DHT22;4786;51.270;4.456;2022-10-16T17:11:32;17.20;99.90
9497;DHT22;4786;51.270;4.456;2022-10-16T17:13:59;17.20;99.90
9497;DHT22;4786;51.270;4.456;2022-10-16T17:16:28;17.10;99.90
9497;DHT22;4786;51.270;4.456;2022-10-16T17:18:54;17.10;99.90
9497;DHT22;4786;51.270;4.456;2022-10-16T17:21:20;17.10;99.90
9497;DHT22;4786;51.270;4.456;2022-10-16T17:23:46;17.10;99.90
9497;DHT22;4786;51.270;4.456;2022-10-16T17:26:14;17.10;99.90
9497;DHT22;4786;51.270;4.456;2022-10-16T17:28:41;17.10;99.90
9497;DHT22;4786;51.270;4.456;2022-10-16T17:33:37;17.00;99.90
9497;DHT22;4786;51.270;4.456;2022-10-16T17:36:03;17.00;99.90
9497;DHT22;4786;51.270;4.456;2022-10-16T17:38:29;17.00;99.90
9497;DHT22;4786;51.270;4.456;2022-10-16T17:40:55;17.00;99.90
9497;DHT22;4786;51.270;4.456;2022-10-16T17:43:21;17.00;99.90
9497;DHT22;4786;51.270;4.456;2022-10-16T17:45:48;17.00;99.90
9497;DHT22;4786;51.270;4.456;2022-10-16T17:48:14;17.00;99.90
9497;DHT22;4786;51.270;4.456;2022-10-16T17:50:42;17.00;99.90
9497;DHT22;4786;51.270;4.456;2022-10-16T17:53:08;17.00;99.90
9497;DHT22;4786;51.270;4.456;2022-10-16T17:55:40;16.90;99.90
9497;DHT22;4786;51.270;4.456;2022-10-16T17:58:07;16.90;99.90
9497;DHT22;4786;51.270;4.456;2022-10-16T18:00:33;16.90;99.90
9497;DHT22;4786;51.270;4.456;2022-10-16T18:02:59;16.90;99.90
9497;DHT22;4786;51.270;4.456;2022-10-16T18:05:26;16.90;99.90
9497;DHT22;4786;51.270;4.456;2022-10-16T18:07:52;16.80;99.90
9497;DHT22;4786;51.270;4.456;2022-10-16T18:10:18;16.90;99.90
9497;DHT22;4786;51.270;4.456;2022-10-16T18:12:43;16.90;99.90
9497;DHT22;4786;51.270;4.456;2022-10-16T18:15:10;16.80;99.90
9497;DHT22;4786;51.270;4.456;2022-10-16T18:17:36;16.90;99.90
9497;DHT22;4786;51.270;4.456;2022-10-16T18:20:04;16.90;99.90
9497;DHT22;4786;51.270;4.456;2022-10-16T18:22:35;16.90;99.90
9497;DHT22;4786;51.270;4.456;2022-10-16T18:25:06;16.90;99.90